Time;durP1;ratioP1;P1;durP2;ratioP2;P2;SDS_P1;SDS_P2;PMS_P1;PMS_P2;Temp;Humidity;BMP_temperature;BMP_pressure;BME280_temperature;BME280_humidity;BME280_pressure;Samples;Min_cycle;Max_cycle;Signal;HPM_P1;HPM_P2
2022/09/20 00:00:44;;;;;;;6.35;2.33;;;;;;;10.89;100.00;101941.31;4987562;28;20030;-77
2022/09/20 00:03:11;;;;;;;9.20;2.60;;;;;;;10.89;100.00;101947.31;4967756;28;20043;-77
2022/09/20 00:05:40;;;;;;;12.10;3.88;;;;;;;10.90;100.00;101956.72;4964493;28;20034;-77
2022/09/20 00:08:09;;;;;;;9.23;3.20;;;;;;;10.96;100.00;101950.19;4980099;28;20027;-77
2022/09/20 00:10:38;;;;;;;10.70;3.47;;;;;;;10.94;100.00;101951.28;4984745;28;20141;-77
2022/09/20 00:13:09;;;;;;;10.85;3.38;;;;;;;10.88;100.00;101948.25;4981795;28;20038;-75
2022/09/20 00:15:40;;;;;;;9.65;2.97;;;;;;;10.86;100.00;101951.94;4980396;28;20038;-76
2022/09/20 00:18:05;;;;;;;9.30;2.65;;;;;;;10.92;100.00;101948.81;4982707;28;20030;-76
2022/09/20 00:20:31;;;;;;;8.13;2.63;;;;;;;10.85;100.00;101945.94;4961892;28;20037;-76
2022/09/20 00:22:56;;;;;;;8.02;2.55;;;;;;;10.85;100.00;101948.53;4983637;28;20071;-76
2022/09/20 00:25:22;;;;;;;7.32;2.55;;;;;;;10.91;100.00;101942.81;4983343;28;20034;-76
2022/09/20 00:27:47;;;;;;;10.25;2.60;;;;;;;10.85;100.00;101940.75;4968454;28;20081;-75
2022/09/20 00:30:13;;;;;;;7.82;2.83;;;;;;;10.80;100.00;101947.28;4982200;28;20049;-76
2022/09/20 00:32:40;;;;;;;8.88;2.60;;;;;;;10.84;100.00;101943.47;4984173;28;20034;-77
2022/09/20 00:35:09;;;;;;;11.57;2.70;;;;;;;10.79;100.00;101943.03;4963395;28;20030;-77
2022/09/20 00:37:40;;;;;;;7.55;2.60;;;;;;;10.88;100.00;101944.84;4976901;28;20035;-76
2022/09/20 00:40:09;;;;;;;5.95;2.47;;;;;;;10.84;100.00;101943.47;4981452;28;20034;-75
2022/09/20 00:42:35;;;;;;;7.75;2.42;;;;;;;10.82;100.00;101943.59;4973738;28;20026;-75
2022/09/20 00:45:02;;;;;;;10.40;2.83;;;;;;;10.82;100.00;101951.38;4984962;28;20877;-76
2022/09/20 00:47:38;;;;;;;10.68;2.80;;;;;;;10.88;100.00;101942.25;4983345;28;20803;-76
2022/09/20 00:50:06;;;;;;;12.50;3.00;;;;;;;10.91;100.00;101940.22;4983963;28;20032;-75
2022/09/20 00:52:33;;;;;;;13.38;2.70;;;;;;;10.85;100.00;101942.50;4984810;28;20129;-75
2022/09/20 00:55:00;;;;;;;8.77;2.78;;;;;;;10.80;100.00;101949.88;4985040;28;20660;-76
2022/09/20 00:57:25;;;;;;;9.63;2.80;;;;;;;10.78;100.00;101947.41;4982821;28;20046;-75
2022/09/20 00:59:52;;;;;;;6.72;3.10;;;;;;;10.80;100.00;101942.91;4983495;28;20056;-75
2022/09/20 01:02:28;;;;;;;9.80;2.70;;;;;;;10.80;100.00;101942.91;4988104;28;20242;-75
2022/09/20 01:04:56;;;;;;;10.45;2.78;;;;;;;10.86;100.00;101951.94;4982626;28;20027;-75
2022/09/20 01:07:23;;;;;;;9.23;2.67;;;;;;;10.78;100.00;101949.19;4988822;28;20122;-75
2022/09/20 01:09:49;;;;;;;7.63;2.50;;;;;;;10.75;100.00;101944.25;4966154;28;20035;-76
2022/09/20 01:12:19;;;;;;;9.20;2.78;;;;;;;10.74;100.00;101937.41;4982208;28;20034;-76
2022/09/20 01:14:47;;;;;;;10.52;3.00;;;;;;;10.83;100.00;101937.47;4988338;28;20077;-75
2022/09/20 01:17:18;;;;;;;8.15;2.78;;;;;;;10.79;100.00;101940.44;4986799;28;20034;-76
2022/09/20 01:20:02;;;;;;;16.70;3.00;;;;;;;10.73;100.00;101938.38;4982172;28;21096;-75
2022/09/20 01:23:03;;;;;;;12.23;2.85;;;;;;;10.71;100.00;101946.28;4967301;28;20058;-76
2022/09/20 01:25:46;;;;;;;11.63;2.90;;;;;;;10.76;100.00;101948.50;4957731;28;20042;-76
2022/09/20 01:28:12;;;;;;;9.25;3.10;;;;;;;10.71;100.00;101941.91;4984713;28;20156;-76
2022/09/20 01:30:44;;;;;;;8.95;2.38;;;;;;;10.70;100.00;101950.66;4970033;28;20046;-76
2022/09/20 01:33:23;;;;;;;8.25;3.05;;;;;;;10.71;100.00;101949.69;4987059;28;20046;-75
2022/09/20 01:35:52;;;;;;;14.55;3.60;;;;;;;10.78;100.00;101946.59;4982370;28;20887;-76
2022/09/20 01:38:59;;;;;;;11.77;2.92;;;;;;;10.74;100.00;101951.22;4985257;28;20038;-76
2022/09/20 01:41:43;;;;;;;11.35;2.50;;;;;;;10.77;100.00;101948.34;4950509;28;20031;-76
2022/09/20 01:44:29;;;;;;;8.10;3.13;;;;;;;10.78;100.00;101949.19;4963899;28;20122;-76
2022/09/20 01:47:09;;;;;;;10.45;3.05;;;;;;;10.73;100.00;101944.38;4977403;28;20050;-75
2022/09/20 01:50:09;;;;;;;5.55;2.10;;;;;;;10.74;100.00;101947.78;4967137;28;20031;-76
2022/09/20 01:53:06;;;;;;;8.32;2.53;;;;;;;10.78;100.00;101952.59;4986334;28;20042;-76
2022/09/20 01:55:50;;;;;;;14.88;2.60;;;;;;;10.72;100.00;101953.13;4981632;28;20041;-76
2022/09/20 01:58:39;;;;;;;7.57;2.60;;;;;;;10.71;100.00;101951.47;4985388;28;20035;-76
2022/09/20 02:01:23;;;;;;;10.55;2.63;;;;;;;10.71;100.00;101961.84;4968693;28;21827;-76
2022/09/20 02:04:23;;;;;;;11.20;2.80;;;;;;;10.77;100.00;101955.31;4985929;28;20125;-77
2022/09/20 02:07:17;;;;;;;8.75;2.70;;;;;;;10.70;100.00;101949.84;4980810;28;20489;-76
2022/09/20 02:09:57;;;;;;;12.40;2.88;;;;;;;10.70;100.00;101955.84;4982895;28;20038;-76
2022/09/20 02:12:33;;;;;;;9.32;3.25;;;;;;;10.66;100.00;101951.84;4986030;28;20126;-76
2022/09/20 02:15:16;;;;;;;6.50;2.75;;;;;;;10.68;100.00;101949.13;4967621;28;20718;-76
2022/09/20 02:18:28;;;;;;;12.02;2.45;;;;;;;10.71;100.00;101951.47;4984256;28;20041;-76
2022/09/20 02:21:04;;;;;;;7.45;2.40;;;;;;;10.70;100.00;101942.06;4982111;28;20577;-76
2022/09/20 02:23:48;;;;;;;15.30;3.25;;;;;;;10.68;100.00;101944.78;4985458;28;20038;-76
2022/09/20 02:26:30;;;;;;;9.93;2.45;;;;;;;10.68;100.00;101944.78;4981954;28;20066;-76
2022/09/20 02:29:14;;;;;;;5.43;2.15;;;;;;;10.66;100.00;101945.81;4982052;28;20365;-76
2022/09/20 02:31:56;;;;;;;14.73;2.58;;;;;;;10.66;100.00;101940.63;4980226;28;20057;-76
2022/09/20 02:34:36;;;;;;;6.00;2.33;;;;;;;10.65;100.00;101946.78;4987000;28;20038;-76
2022/09/20 02:37:39;;;;;;;6.88;2.30;;;;;;;10.65;100.00;101949.38;4982012;28;20037;-75
2022/09/20 02:40:25;;;;;;;9.50;2.13;;;;;;;10.63;100.00;101941.72;4986903;28;20399;-76
2022/09/20 02:43:07;;;;;;;17.85;2.55;;;;;;;10.61;100.00;101948.81;5000406;28;20042;-76
2022/09/20 02:45:35;;;;;;;8.57;2.45;;;;;;;10.61;100.00;101948.81;4967799;28;20038;-76
2022/09/20 02:48:03;;;;;;;5.70;2.53;;;;;;;10.62;100.00;101947.03;4985457;28;20090;-76
2022/09/20 02:50:53;;;;;;;7.65;2.85;;;;;;;10.61;100.00;101945.41;4985148;28;20070;-77
2022/09/20 02:53:34;;;;;;;9.38;2.20;;;;;;;10.59;100.00;101947.31;4964945;28;20091;-76
2022/09/20 02:56:22;;;;;;;11.50;2.65;;;;;;;10.59;100.00;101937.75;4980508;28;20045;-76
2022/09/20 02:59:33;;;;;;;5.63;2.10;;;;;;;10.58;100.00;101936.09;5001720;28;20475;-76
2022/09/20 03:02:19;;;;;;;7.65;2.45;;;;;;;10.57;100.00;101937.06;4968656;28;20050;-76
2022/09/20 03:05:13;;;;;;;11.82;2.47;;;;;;;10.61;100.00;101941.03;4982858;28;20034;-76
2022/09/20 03:07:57;;;;;;;6.53;1.75;;;;;;;10.60;100.00;101938.56;4979411;28;20116;-76
2022/09/20 03:10:47;;;;;;;10.82;2.25;;;;;;;10.60;100.00;101941.97;4984596;28;20034;-75
2022/09/20 03:13:41;;;;;;;9.65;2.15;;;;;;;10.59;100.00;101929.97;4974105;28;20712;-76
2022/09/20 03:16:11;;;;;;;8.13;2.35;;;;;;;10.57;100.00;101937.06;4987793;28;20057;-75
2022/09/20 03:18:53;;;;;;;12.20;3.05;;;;;;;10.57;100.00;101933.63;4988631;28;20066;-76
2022/09/20 03:21:46;;;;;;;13.45;3.55;;;;;;;10.58;100.00;101935.28;4966234;28;20092;-76
2022/09/20 03:24:40;;;;;;;11.85;3.20;;;;;;;10.58;100.00;101943.06;4983444;28;20053;-76
2022/09/20 03:27:09;;;;;;;11.05;3.53;;;;;;;10.58;100.00;101937.88;4982455;28;20073;-76
2022/09/20 03:29:54;;;;;;;11.88;3.33;;;;;;;10.60;100.00;101934.19;4982418;28;20026;-76
2022/09/20 03:32:47;;;;;;;7.63;2.70;;;;;;;10.55;100.00;101936.38;4982104;28;20113;-76
2022/09/20 03:35:28;;;;;;;12.82;3.00;;;;;;;10.52;100.00;101936.63;4984229;28;20034;-76
2022/09/20 03:37:59;;;;;;;15.13;3.05;;;;;;;10.52;100.00;101939.22;4984271;28;20034;-75
2022/09/20 03:41:06;;;;;;;10.10;2.95;;;;;;;10.54;100.00;101939.91;4985624;28;20146;-76
2022/09/20 03:43:57;;;;;;;8.18;3.28;;;;;;;10.53;100.00;101940.88;4974340;28;20046;-76
2022/09/20 03:46:40;;;;;;;10.75;2.78;;;;;;;10.53;100.00;101940.88;4981430;28;20498;-76
2022/09/20 03:49:24;;;;;;;12.38;3.10;;;;;;;10.54;100.00;101942.50;4968656;28;20065;-76
2022/09/20 03:52:31;;;;;;;14.57;3.13;;;;;;;10.55;100.00;101941.56;4982855;28;20034;-76
2022/09/20 03:55:21;;;;;;;9.52;3.03;;;;;;;10.60;100.00;101951.53;4983646;28;20027;-76
2022/09/20 03:58:20;;;;;;;10.95;3.42;;;;;;;10.58;100.00;101941.28;4983139;28;20096;-76
2022/09/20 04:01:04;;;;;;;12.00;3.10;;;;;;;10.54;100.00;101947.69;4985169;28;20034;-75
2022/09/20 04:03:48;;;;;;;9.00;3.55;;;;;;;10.52;100.00;101944.41;4999456;28;20108;-76
2022/09/20 04:06:41;;;;;;;10.43;3.50;;;;;;;10.54;100.00;101946.88;4977338;28;20127;-76
2022/09/20 04:09:46;;;;;;;13.13;3.75;;;;;;;10.50;100.00;101949.72;4985062;28;20034;-76
2022/09/20 04:12:49;;;;;;;13.35;3.45;;;;;;;10.50;100.00;101947.13;4982949;28;20037;-76
2022/09/20 04:15:22;;;;;;;8.07;3.70;;;;;;;10.49;100.00;101949.81;4981392;28;20106;-77
2022/09/20 04:18:00;;;;;;;10.35;3.78;;;;;;;10.50;100.00;101947.13;4982162;28;20532;-76
2022/09/20 04:20:45;;;;;;;13.00;4.10;;;;;;;10.50;100.00;101943.72;4968786;28;20030;-76
2022/09/20 04:23:36;;;;;;;11.13;4.35;;;;;;;10.52;100.00;101950.41;4985451;28;20042;-77
2022/09/20 04:26:02;;;;;;;13.48;5.00;;;;;;;10.50;100.00;101946.31;4986488;28;20049;-76
2022/09/20 04:28:51;;;;;;;14.52;4.78;;;;;;;10.49;100.00;101948.06;4971009;28;20019;-76
2022/09/20 04:31:28;;;;;;;16.77;5.65;;;;;;;10.47;100.00;101949.13;4984305;28;20038;-77
2022/09/20 04:33:56;;;;;;;13.63;5.10;;;;;;;10.50;100.00;101957.47;4985842;28;20034;-76
2022/09/20 04:36:37;;;;;;;17.05;5.10;;;;;;;10.51;100.00;101955.75;4970520;28;20061;-76
2022/09/20 04:39:41;;;;;;;20.95;5.38;;;;;;;10.49;100.00;101958.44;4975108;28;20045;-76
2022/09/20 04:42:55;;;;;;;18.50;4.68;;;;;;;10.48;100.00;101958.56;4963238;28;20038;-75
2022/09/20 04:45:39;;;;;;;18.27;4.97;;;;;;;10.53;100.00;101961.63;4942421;28;20042;-77
2022/09/20 04:48:43;;;;;;;13.38;5.03;;;;;;;10.51;100.00;101961.75;4972396;28;20053;-76
2022/09/20 04:51:17;;;;;;;17.20;5.60;;;;;;;10.48;100.00;101955.97;5000351;28;20034;-76
2022/09/20 04:54:02;;;;;;;13.00;5.03;;;;;;;10.45;100.00;101964.00;4965336;28;20042;-76
2022/09/20 04:57:04;;;;;;;10.23;5.05;;;;;;;10.44;100.00;101964.97;4985087;28;20042;-76
2022/09/20 04:59:54;;;;;;;13.00;5.50;;;;;;;10.43;100.00;101960.72;4989512;28;20030;-76
2022/09/20 05:02:41;;;;;;;16.02;5.93;;;;;;;10.45;100.00;101971.78;4985339;28;20039;-76
2022/09/20 05:05:34;;;;;;;16.02;6.38;;;;;;;10.45;100.00;101964.00;4986828;28;20343;-76
2022/09/20 05:08:41;;;;;;;12.65;5.88;;;;;;;10.43;100.00;101963.31;4986681;28;20026;-75
2022/09/20 05:11:29;;;;;;;11.18;5.97;;;;;;;10.42;100.00;101977.25;4980769;28;20042;-76
2022/09/20 05:14:07;;;;;;;10.00;5.22;;;;;;;10.45;100.00;101971.78;4986728;28;20501;-76
2022/09/20 05:16:44;;;;;;;13.07;6.20;;;;;;;10.46;100.00;101979.44;4984459;28;20061;-76
2022/09/20 05:19:31;;;;;;;15.73;5.68;;;;;;;10.42;100.00;101977.25;4985957;28;20050;-76
2022/09/20 05:22:27;;;;;;;15.57;5.97;;;;;;;10.46;100.00;101974.25;4984921;28;20034;-76
2022/09/20 05:25:18;;;;;;;16.05;6.18;;;;;;;10.40;100.00;101979.94;4985890;28;20038;-76
2022/09/20 05:28:05;;;;;;;18.90;5.88;;;;;;;10.44;100.00;101980.53;4984137;28;20022;-76
2022/09/20 05:30:37;;;;;;;21.30;6.78;;;;;;;10.44;100.00;101983.94;4970414;28;20038;-75
2022/09/20 05:33:14;;;;;;;20.53;5.87;;;;;;;10.44;100.00;101986.53;4984367;28;20030;-77
2022/09/20 05:35:53;;;;;;;15.48;6.28;;;;;;;10.46;100.00;101991.59;4998834;28;20038;-77
2022/09/20 05:39:00;;;;;;;14.18;6.13;;;;;;;10.47;100.00;101993.22;4998748;28;20035;-77
2022/09/20 05:41:35;;;;;;;14.63;5.70;;;;;;;10.49;100.00;101999.09;5002031;28;20122;-77
2022/09/20 05:44:31;;;;;;;12.13;5.47;;;;;;;10.47;100.00;101990.63;4983894;28;20075;-77
2022/09/20 05:47:10;;;;;;;14.35;6.00;;;;;;;10.47;100.00;101994.06;4985713;28;20039;-76
2022/09/20 05:49:48;;;;;;;14.75;5.45;;;;;;;10.45;100.00;101993.38;4972684;28;20034;-76
2022/09/20 05:52:26;;;;;;;16.05;6.18;;;;;;;10.48;100.00;101994.88;4985950;28;20126;-76
2022/09/20 05:55:16;;;;;;;11.43;5.57;;;;;;;10.46;100.00;101997.59;4983754;28;20038;-77
2022/09/20 05:58:14;;;;;;;20.15;5.88;;;;;;;10.47;100.00;101993.22;4980089;28;20026;-76
2022/09/20 06:00:58;;;;;;;11.52;5.50;;;;;;;10.51;100.00;101998.03;4982923;28;20030;-76
2022/09/20 06:03:53;;;;;;;13.05;5.60;;;;;;;10.52;100.00;102001.44;4968284;28;20030;-76
2022/09/20 06:06:25;;;;;;;17.67;5.40;;;;;;;10.59;100.00;102002.59;4986017;28;20026;-77
2022/09/20 06:08:59;;;;;;;18.33;6.40;;;;;;;10.57;100.00;101999.31;4987812;28;20042;-76
2022/09/20 06:11:46;;;;;;;18.63;6.30;;;;;;;10.65;100.00;102001.25;4985459;28;20521;-76
2022/09/20 06:14:21;;;;;;;13.43;5.70;;;;;;;10.57;100.00;102001.91;4985266;28;20041;-76
2022/09/20 06:16:58;;;;;;;14.82;5.65;;;;;;;10.58;100.00;102002.72;4985317;28;20048;-78
2022/09/20 06:19:44;;;;;;;16.88;6.55;;;;;;;10.65;100.00;102001.25;4985495;28;20036;-76
2022/09/20 06:22:20;;;;;;;15.05;5.28;;;;;;;10.67;100.00;102004.56;4983140;28;20065;-77
2022/09/20 06:25:06;;;;;;;17.00;6.90;;;;;;;10.75;100.00;102001.31;4984786;28;20026;-76
2022/09/20 06:27:39;;;;;;;16.95;6.28;;;;;;;10.84;100.00;102003.16;4978381;28;20141;-77
2022/09/20 06:30:22;;;;;;;18.33;6.80;;;;;;;10.87;100.00;102001.13;4985733;28;20069;-76
2022/09/20 06:32:55;;;;;;;19.52;5.90;;;;;;;10.93;100.00;102006.75;4969247;28;20030;-77
2022/09/20 06:35:26;;;;;;;12.50;5.80;;;;;;;10.97;100.00;102013.34;4999150;28;20043;-76
2022/09/20 06:41:27;;;;;;;9.80;5.28;;;;;;;11.08;100.00;102008.88;4931874;28;20055;-76
2022/09/20 06:44:04;;;;;;;11.68;5.50;;;;;;;11.10;100.00;102014.75;4969164;28;20518;-77
2022/09/20 06:46:33;;;;;;;38.88;15.40;;;;;;;11.16;100.00;102012.59;4985384;28;20023;-77
2022/09/20 06:48:58;;;;;;;21.67;6.97;;;;;;;11.53;100.00;102012.88;4984009;28;20042;-77
2022/09/20 06:51:26;;;;;;;24.90;8.63;;;;;;;12.20;100.00;102007.91;4980798;28;20422;-77
2022/09/20 06:53:53;;;;;;;15.55;6.68;;;;;;;12.80;98.34;102008.50;4968114;28;20038;-77
2022/09/20 06:56:22;;;;;;;12.55;4.78;;;;;;;13.82;92.65;102010.28;4966880;28;20059;-76
2022/09/20 06:58:48;;;;;;;9.35;4.22;;;;;;;14.69;85.80;102007.06;4981567;28;20037;-76
2022/09/20 07:01:14;;;;;;;12.05;4.47;;;;;;;14.71;82.44;102007.72;4984605;28;20391;-76
2022/09/20 07:03:40;;;;;;;12.70;4.93;;;;;;;14.05;84.72;102015.00;4983940;28;20584;-76
2022/09/20 07:06:07;;;;;;;14.65;4.75;;;;;;;13.35;87.14;102023.41;4985152;28;20475;-76
2022/09/20 07:08:33;;;;;;;13.10;4.38;;;;;;;12.98;89.63;102016.41;4982709;28;20030;-76
2022/09/20 07:11:07;;;;;;;13.70;4.90;;;;;;;13.80;89.06;102013.97;4986492;28;20053;-76
2022/09/20 07:13:33;;;;;;;15.15;4.05;;;;;;;14.91;83.00;102009.16;4985601;28;20034;-77
2022/09/20 07:16:01;;;;;;;8.43;4.00;;;;;;;15.72;77.52;102013.03;4999188;28;20048;-77
2022/09/20 07:18:26;;;;;;;10.35;3.20;;;;;;;16.39;74.33;102011.31;4987556;28;20094;-76
2022/09/20 07:20:53;;;;;;;11.90;3.95;;;;;;;17.00;71.26;102014.34;4967003;28;20142;-76
2022/09/20 07:23:18;;;;;;;10.20;2.90;;;;;;;16.40;73.03;102018.19;4965298;28;20034;-76
2022/09/20 07:25:44;;;;;;;9.13;2.78;;;;;;;17.04;70.34;102010.38;4972899;28;20045;-76
2022/09/20 07:28:09;;;;;;;7.22;3.85;;;;;;;17.65;68.36;102013.19;4982987;28;20031;-76
2022/09/20 07:30:35;;;;;;;8.75;3.20;;;;;;;17.50;67.64;102010.53;4981035;28;20412;-77
2022/09/20 07:33:01;;;;;;;6.78;3.40;;;;;;;16.69;70.42;102021.09;4980784;28;20047;-79
2022/09/20 07:35:27;;;;;;;9.55;2.78;;;;;;;15.88;73.28;102021.91;4966971;28;20034;-76
2022/09/20 07:37:57;;;;;;;7.57;3.50;;;;;;;15.23;76.24;102025.97;4967935;28;20036;-76
2022/09/20 07:40:22;;;;;;;6.25;2.80;;;;;;;14.81;77.72;102033.75;4985260;28;20046;-76
2022/09/20 07:42:48;;;;;;;7.55;3.35;;;;;;;14.52;79.85;102035.66;4985561;28;20075;-76
2022/09/20 07:45:13;;;;;;;7.90;3.42;;;;;;;14.25;81.44;102036.56;4981270;28;20033;-76
2022/09/20 07:47:40;;;;;;;13.60;3.55;;;;;;;14.40;82.02;102039.47;4979922;28;20450;-76
2022/09/20 07:50:08;;;;;;;10.10;3.10;;;;;;;14.44;81.54;102032.16;4983262;28;20053;-76
2022/09/20 07:52:34;;;;;;;10.15;3.33;;;;;;;14.94;80.66;102028.94;4982247;28;20080;-76
2022/09/20 07:54:59;;;;;;;10.63;3.50;;;;;;;15.56;77.28;102034.75;4987388;28;20462;-78
2022/09/20 07:57:25;;;;;;;7.93;2.85;;;;;;;15.86;73.36;102032.56;4972044;28;20026;-75
2022/09/20 07:59:50;;;;;;;7.03;2.75;;;;;;;15.72;74.20;102036.56;4972854;28;20046;-78
2022/09/20 08:02:16;;;;;;;10.57;2.80;;;;;;;16.69;70.92;102041.25;4982536;28;20041;-77
2022/09/20 08:04:42;;;;;;;10.77;2.83;;;;;;;17.56;68.10;102035.22;4986322;28;20476;-77
2022/09/20 08:07:07;;;;;;;6.03;2.38;;;;;;;16.88;69.84;102033.03;4987001;28;20030;-76
2022/09/20 08:09:33;;;;;;;13.05;3.33;;;;;;;16.47;70.83;102038.31;4968612;28;20128;-76
2022/09/20 08:11:58;;;;;;;5.95;2.60;;;;;;;16.85;69.50;102032.53;4989343;28;20037;-76
2022/09/20 08:14:24;;;;;;;6.35;2.67;;;;;;;17.72;66.66;102032.50;4970022;28;20513;-76
2022/09/20 08:16:50;;;;;;;8.80;2.50;;;;;;;18.16;64.83;102036.31;4988718;28;20034;-76
2022/09/20 08:19:19;;;;;;;13.57;3.60;;;;;;;18.74;62.68;102034.84;4971743;28;20038;-78
2022/09/20 08:21:45;;;;;;;6.90;3.08;;;;;;;19.08;60.42;102025.63;4984049;28;20443;-77
2022/09/20 08:24:11;;;;;;;3.35;2.58;;;;;;;19.39;59.27;102038.53;4987501;28;20038;-77
2022/09/20 08:26:37;;;;;;;3.72;2.05;;;;;;;19.63;58.64;102036.56;4972973;28;20054;-77
2022/09/20 08:29:04;;;;;;;6.93;2.97;;;;;;;19.76;57.40;102034.09;4984896;28;20073;-78
2022/09/20 08:31:35;;;;;;;7.07;2.40;;;;;;;19.52;57.47;102037.06;4968541;28;20850;-77
2022/09/20 08:34:03;;;;;;;9.32;2.92;;;;;;;19.79;57.88;102038.97;4988344;28;20046;-78
2022/09/20 08:36:31;;;;;;;6.97;1.85;;;;;;;20.13;57.41;102037.47;4988192;28;20033;-76
2022/09/20 08:38:56;;;;;;;4.38;1.83;;;;;;;20.26;56.16;102042.03;4984861;28;20041;-77
2022/09/20 08:41:29;;;;;;;6.35;2.45;;;;;;;20.50;54.99;102047.91;4989257;28;20027;-78
2022/09/20 08:43:59;;;;;;;;;;;;;;;19.46;54.13;102049.13;4989110;28;20034;-76
2022/09/20 08:46:34;;;;;;;8.75;2.13;;;;;;;19.15;56.17;102055.41;4970681;28;19932;-77
2022/09/20 08:49:04;;;;;;;15.63;3.30;;;;;;;18.11;59.53;102060.47;4971824;28;20045;-77
2022/09/20 08:51:38;;;;;;;7.72;1.67;;;;;;;18.09;60.59;102058.03;4986969;28;22757;-77
2022/09/20 08:54:15;;;;;;;7.32;1.48;;;;;;;18.13;60.11;102055.06;4982813;28;20030;-76
2022/09/20 08:56:41;;;;;;;5.13;2.30;;;;;;;18.26;59.92;102048.22;4988813;28;20038;-77
2022/09/20 08:59:14;;;;;;;4.28;1.63;;;;;;;17.73;61.77;102056.94;4984344;28;20129;-76
2022/09/20 09:01:40;;;;;;;9.97;2.40;;;;;;;17.32;62.03;102053.50;4978705;28;20117;-78
2022/09/20 09:04:16;;;;;;;5.82;1.52;;;;;;;17.46;62.84;102046.75;4985606;28;20069;-77
2022/09/20 09:06:43;;;;;;;4.50;1.20;;;;;;;17.23;62.41;102049.28;4969387;28;20121;-77
2022/09/20 09:09:19;;;;;;;14.10;1.23;;;;;;;16.81;63.64;102057.41;4984062;28;20042;-76
2022/09/20 09:11:45;;;;;;;5.00;1.33;;;;;;;16.84;64.06;102055.31;4966749;28;20494;-77
2022/09/20 09:17:02;;;;;;;6.78;1.05;;;;;;;17.01;60.45;102047.38;4981297;28;20045;-78
2022/09/20 09:19:43;;;;;;;6.10;0.90;;;;;;;17.03;58.62;102048.88;4966730;28;20042;-76
2022/09/20 09:22:09;;;;;;;8.35;1.48;;;;;;;17.09;58.99;102050.00;4968713;28;20113;-76
2022/09/20 09:24:34;;;;;;;4.88;0.80;;;;;;;16.87;59.49;102052.34;4983901;28;20895;-78
2022/09/20 09:27:16;;;;;;;7.28;1.15;;;;;;;16.42;61.35;102047.63;4983161;28;20034;-79
2022/09/20 09:29:55;;;;;;;8.63;1.67;;;;;;;16.03;61.33;102054.31;4985800;28;20057;-79
2022/09/20 09:32:24;;;;;;;7.28;0.93;;;;;;;15.69;61.93;102054.38;4983386;28;20037;-77
2022/09/20 09:34:50;;;;;;;5.80;0.90;;;;;;;15.87;62.30;102052.50;4981437;28;20049;-78
2022/09/20 09:37:30;;;;;;;3.97;0.60;;;;;;;15.80;62.70;102055.91;4980649;28;20042;-77
2022/09/20 09:40:15;;;;;;;2.17;0.60;;;;;;;15.73;63.14;102053.94;4985534;28;20045;-78
2022/09/20 09:42:52;;;;;;;5.00;0.90;;;;;;;15.48;63.78;102050.41;4982193;28;20058;-78
2022/09/20 09:45:30;;;;;;;6.57;0.82;;;;;;;15.40;64.29;102052.16;4949237;28;1074269;-78
2022/09/20 09:47:58;;;;;;;3.03;0.80;;;;;;;15.30;64.95;102049.69;4984318;28;20653;-78
2022/09/20 09:50:30;;;;;;;6.88;0.60;;;;;;;15.33;65.94;102054.56;4985097;28;20057;-78
2022/09/20 09:53:08;;;;;;;7.97;1.33;;;;;;;15.51;65.18;102054.50;4982865;28;20069;-76
2022/09/20 09:55:50;;;;;;;3.92;1.20;;;;;;;15.32;66.41;102058.97;4971599;28;20096;-77
2022/09/20 09:58:35;;;;;;;7.95;1.27;;;;;;;15.19;66.39;102055.97;5002505;28;20038;-78
2022/09/20 10:01:05;;;;;;;14.30;1.27;;;;;;;14.95;65.87;102067.13;4968380;28;20399;-76
2022/09/20 10:03:51;;;;;;;4.75;1.45;;;;;;;14.85;69.14;102077.66;4985984;28;20041;-77
2022/09/20 10:06:29;;;;;;;5.45;0.98;;;;;;;14.76;69.92;102086.41;5001744;28;20108;-73
2022/09/20 10:09:04;;;;;;;7.00;1.17;;;;;;;14.45;75.10;102097.25;4982460;28;20081;-75
2022/09/20 10:11:42;;;;;;;4.57;1.02;;;;;;;14.20;78.26;102091.81;4986069;28;20510;-77
2022/09/20 10:14:29;;;;;;;8.52;1.27;;;;;;;14.09;79.63;102093.78;4984138;28;21757;-76
2022/09/20 10:17:24;;;;;;;3.20;1.00;;;;;;;13.91;79.87;102089.38;4987250;28;20069;-76
2022/09/20 10:20:30;;;;;;;4.68;1.33;;;;;;;13.83;76.69;102091.91;4969773;28;20066;-77
2022/09/20 10:23:23;;;;;;;4.38;0.50;;;;;;;13.98;75.15;102087.81;4968141;28;20043;-78
2022/09/20 10:26:12;;;;;;;4.80;0.40;;;;;;;13.88;75.65;102087.06;4983151;28;20030;-77
2022/09/20 10:28:56;;;;;;;2.72;0.50;;;;;;;13.86;76.93;102082.94;4971727;28;20035;-78
2022/09/20 10:31:30;;;;;;;2.00;0.40;;;;;;;13.93;77.16;102078.81;4984971;28;20047;-78
2022/09/20 10:34:08;;;;;;;3.28;0.50;;;;;;;13.83;71.60;102081.47;4996720;28;20506;-78
2022/09/20 10:36:50;;;;;;;3.40;0.40;;;;;;;13.86;72.56;102088.97;4968981;28;20034;-79
2022/09/20 10:39:37;;;;;;;1.30;0.32;;;;;;;13.96;75.69;102081.13;4968263;28;20038;-78
2022/09/20 10:45:41;;;;;;;2.60;0.30;;;;;;;14.17;75.54;102073.00;4987122;28;20039;-77
2022/09/20 10:48:21;;;;;;;4.72;0.38;;;;;;;14.19;74.19;102071.06;4970572;28;20031;-78
2022/09/20 10:50:53;;;;;;;3.78;0.50;;;;;;;14.26;74.32;102076.50;4984793;28;20031;-77
2022/09/20 10:53:34;;;;;;;1.23;0.40;;;;;;;14.39;75.50;102076.94;4966496;28;20039;-78
2022/09/20 10:56:40;;;;;;;4.95;0.40;;;;;;;14.45;72.28;102076.38;4972582;28;20030;-78
2022/09/20 10:59:38;;;;;;;2.83;0.40;;;;;;;14.51;73.42;102072.34;4985343;28;20038;-78
2022/09/20 11:02:34;;;;;;;1.80;0.40;;;;;;;14.67;73.46;102076.88;4982413;28;20117;-79
2022/09/20 11:05:27;;;;;;;1.65;0.40;;;;;;;14.85;74.20;102079.47;4964993;28;20173;-78
2022/09/20 11:08:02;;;;;;;4.20;0.50;;;;;;;14.95;75.42;102070.53;4981464;28;20113;-77
2022/09/20 11:10:36;;;;;;;2.55;0.70;;;;;;;14.93;71.48;102075.09;4985702;28;20034;-78
2022/09/20 11:13:23;;;;;;;5.47;0.47;;;;;;;14.95;72.74;102080.16;4968723;28;20084;-79
2022/09/20 11:15:50;;;;;;;3.42;0.50;;;;;;;15.12;75.16;102078.47;4969385;28;20046;-79
2022/09/20 11:18:30;;;;;;;2.22;0.43;;;;;;;15.13;75.98;102074.91;4980789;28;20499;-79
2022/09/20 11:21:16;;;;;;;5.53;0.50;;;;;;;15.33;75.09;102080.69;4967641;28;20081;-77
2022/09/20 11:23:48;;;;;;;3.63;1.27;;;;;;;15.34;71.52;102077.13;4985581;28;20026;-78
2022/09/20 11:26:21;;;;;;;5.13;0.60;;;;;;;15.30;71.63;102078.41;4983818;28;20035;-78
2022/09/20 11:28:56;;;;;;;4.55;0.70;;;;;;;15.23;72.08;102080.81;4996380;28;20093;-78
2022/09/20 11:31:34;;;;;;;2.05;0.73;;;;;;;15.23;71.84;102088.66;4984760;28;20043;-79
2022/09/20 11:34:32;;;;;;;4.38;0.63;;;;;;;15.40;72.98;102093.97;4983134;28;20031;-79
2022/09/20 11:37:01;;;;;;;2.40;0.68;;;;;;;15.23;70.41;102093.88;4981956;28;20046;-79
2022/09/20 11:39:49;;;;;;;6.30;0.85;;;;;;;15.17;73.32;102092.72;4969472;28;20034;-79
2022/09/20 11:42:22;;;;;;;6.20;0.73;;;;;;;14.92;74.14;102096.97;5000281;28;20073;-80
2022/09/20 11:44:49;;;;;;;2.47;0.55;;;;;;;14.72;73.77;102103.34;4982627;28;20049;-79
2022/09/20 11:47:33;;;;;;;6.50;0.90;;;;;;;14.73;76.93;102111.03;4984090;28;20082;-76
2022/09/20 11:50:28;;;;;;;9.10;1.98;;;;;;;14.48;79.16;102114.38;4984037;28;20043;-77
2022/09/20 11:52:56;;;;;;;3.83;1.02;;;;;;;14.30;78.91;102117.00;4983445;28;20113;-78
2022/09/20 11:55:47;;;;;;;5.82;1.13;;;;;;;14.18;81.21;102117.22;4969229;28;20046;-77
2022/09/20 11:58:15;;;;;;;7.93;2.30;;;;;;;14.29;82.29;102108.34;4983584;28;20026;-79
2022/09/20 12:00:46;;;;;;;8.25;2.55;;;;;;;14.32;84.37;102115.06;4969858;28;20402;-79
2022/09/20 12:03:25;;;;;;;4.05;1.10;;;;;;;14.30;83.55;102111.78;4980880;28;20407;-79
2022/09/20 12:06:05;;;;;;;3.58;1.00;;;;;;;14.28;83.06;102114.53;4969933;28;20046;-80
2022/09/20 12:08:40;;;;;;;7.18;0.98;;;;;;;14.23;83.03;102116.75;4985772;28;20054;-79
2022/09/20 12:11:16;;;;;;;5.80;0.95;;;;;;;14.25;83.20;102114.00;4968651;28;20034;-78
2022/09/20 12:13:52;;;;;;;4.85;0.77;;;;;;;14.26;83.18;102110.41;4980603;28;20053;-78
2022/09/20 12:16:38;;;;;;;6.70;0.80;;;;;;;14.27;83.85;102114.69;4983599;28;20453;-78